sensor_id;sensor_type;location;lat;lon;timestamp;pressure;altitude;pressure_sealevel;temperature;humidity
73860;BME280;62197;51.632;13.700;2023-05-07T00:00:08;100693.59;;;8.21;100.00
73860;BME280;62197;51.632;13.700;2023-05-07T00:02:34;100687.22;;;8.34;100.00
73860;BME280;62197;51.632;13.700;2023-05-07T00:04:59;100684.75;;;8.26;100.00
73860;BME280;62197;51.632;13.700;2023-05-07T00:07:25;100688.34;;;8.26;100.00
73860;BME280;62197;51.632;13.700;2023-05-07T00:09:50;100688.22;;;8.46;100.00
73860;BME280;62197;51.632;13.700;2023-05-07T00:12:15;100692.41;;;8.48;100.00
73860;BME280;62197;51.632;13.700;2023-05-07T00:14:41;100681.66;;;8.40;100.00
73860;BME280;62197;51.632;13.700;2023-05-07T00:17:06;100692.25;;;8.43;100.00
73860;BME280;62197;51.632;13.700;2023-05-07T00:19:31;100686.84;;;8.30;100.00
73860;BME280;62197;51.632;13.700;2023-05-07T00:21:57;100689.81;;;8.22;100.00
73860;BME280;62197;51.632;13.700;2023-05-07T00:24:23;100688.56;;;8.18;100.00
73860;BME280;62197;51.632;13.700;2023-05-07T00:26:48;100691.13;;;8.13;100.00
73860;BME280;62197;51.632;13.700;2023-05-07T00:29:14;100693.06;;;8.06;100.00
73860;BME280;62197;51.632;13.700;2023-05-07T00:31:39;100694.78;;;8.07;100.00
73860;BME280;62197;51.632;13.700;2023-05-07T00:34:05;100689.06;;;8.08;100.00
73860;BME280;62197;51.632;13.700;2023-05-07T00:36:30;100694.50;;;8.15;100.00
73860;BME280;62197;51.632;13.700;2023-05-07T00:38:57;100680.13;;;8.13;100.00
73860;BME280;62197;51.632;13.700;2023-05-07T00:41:24;100678.91;;;8.09;100.00
73860;BME280;62197;51.632;13.700;2023-05-07T00:43:49;100687.56;;;8.06;100.00
73860;BME280;62197;51.632;13.700;2023-05-07T00:46:16;100691.56;;;8.10;100.00
73860;BME280;62197;51.632;13.700;2023-05-07T00:48:42;100688.81;;;8.10;100.00
73860;BME280;62197;51.632;13.700;2023-05-07T00:51:08;100696.63;;;8.13;100.00
73860;BME280;62197;51.632;13.700;2023-05-07T00:53:34;100690.34;;;7.99;100.00
73860;BME280;62197;51.632;13.700;2023-05-07T00:56:00;100702.41;;;8.05;100.00
73860;BME280;62197;51.632;13.700;2023-05-07T00:58:26;100709.31;;;8.14;100.00
73860;BME280;62197;51.632;13.700;2023-05-07T01:00:51;100707.59;;;8.13;100.00
73860;BME280;62197;51.632;13.700;2023-05-07T01:03:17;100704.22;;;8.11;100.00
73860;BME280;62197;51.632;13.700;2023-05-07T01:05:42;100698.06;;;8.22;100.00
73860;BME280;62197;51.632;13.700;2023-05-07T01:08:10;100697.59;;;8.32;100.00
73860;BME280;62197;51.632;13.700;2023-05-07T01:10:35;100699.28;;;8.33;100.00
73860;BME280;62197;51.632;13.700;2023-05-07T01:13:01;100706.72;;;8.32;100.00
73860;BME280;62197;51.632;13.700;2023-05-07T01:15:27;100710.09;;;8.21;100.00
73860;BME280;62197;51.632;13.700;2023-05-07T01:17:52;100698.69;;;8.24;100.00
73860;BME280;62197;51.632;13.700;2023-05-07T01:20:18;100703.34;;;8.30;100.00
73860;BME280;62197;51.632;13.700;2023-05-07T01:22:44;100699.97;;;8.15;100.00
73860;BME280;62197;51.632;13.700;2023-05-07T01:25:10;100709.59;;;7.99;100.00
73860;BME280;62197;51.632;13.700;2023-05-07T01:27:35;100700.31;;;7.94;100.00
73860;BME280;62197;51.632;13.700;2023-05-07T01:30:05;100706.00;;;7.99;100.00
73860;BME280;62197;51.632;13.700;2023-05-07T01:35:09;100712.63;;;7.78;100.00
73860;BME280;62197;51.632;13.700;2023-05-07T01:37:36;100706.13;;;7.73;100.00
73860;BME280;62197;51.632;13.700;2023-05-07T01:40:02;100713.09;;;7.75;100.00
73860;BME280;62197;51.632;13.700;2023-05-07T01:42:29;100707.81;;;7.74;100.00
73860;BME280;62197;51.632;13.700;2023-05-07T01:44:54;100709.25;;;7.83;100.00
73860;BME280;62197;51.632;13.700;2023-05-07T01:47:20;100715.75;;;7.95;100.00
73860;BME280;62197;51.632;13.700;2023-05-07T01:49:46;100716.19;;;7.92;100.00
73860;BME280;62197;51.632;13.700;2023-05-07T01:52:12;100707.75;;;7.93;100.00
73860;BME280;62197;51.632;13.700;2023-05-07T01:54:38;100715.97;;;7.93;100.00
73860;BME280;62197;51.632;13.700;2023-05-07T01:57:03;100710.44;;;8.00;100.00
73860;BME280;62197;51.632;13.700;2023-05-07T01:59:29;100715.78;;;7.88;100.00
73860;BME280;62197;51.632;13.700;2023-05-07T02:01:54;100710.66;;;7.98;100.00
73860;BME280;62197;51.632;13.700;2023-05-07T02:04:19;100708.53;;;8.00;100.00
73860;BME280;62197;51.632;13.700;2023-05-07T02:06:45;100715.38;;;7.85;100.00
73860;BME280;62197;51.632;13.700;2023-05-07T02:09:11;100707.97;;;7.85;100.00
73860;BME280;62197;51.632;13.700;2023-05-07T02:11:36;100714.47;;;7.97;100.00
73860;BME280;62197;51.632;13.700;2023-05-07T02:14:02;100714.28;;;7.86;100.00
73860;BME280;62197;51.632;13.700;2023-05-07T02:16:27;100713.69;;;7.84;100.00
73860;BME280;62197;51.632;13.700;2023-05-07T02:18:52;100708.59;;;7.87;100.00
73860;BME280;62197;51.632;13.700;2023-05-07T02:21:18;100711.94;;;7.96;100.00
73860;BME280;62197;51.632;13.700;2023-05-07T02:23:43;100719.53;;;8.00;100.00
73860;BME280;62197;51.632;13.700;2023-05-07T02:26:10;100716.19;;;7.92;100.00
73860;BME280;62197;51.632;13.700;2023-05-07T02:28:36;100729.03;;;7.98;100.00
73860;BME280;62197;51.632;13.700;2023-05-07T02:31:04;100726.28;;;7.98;100.00
73860;BME280;62197;51.632;13.700;2023-05-07T02:33:29;100734.31;;;7.99;100.00
73860;BME280;62197;51.632;13.700;2023-05-07T02:35:55;100731.94;;;8.09;100.00
73860;BME280;62197;51.632;13.700;2023-05-07T02:38:21;100735.78;;;8.08;100.00
73860;BME280;62197;51.632;13.700;2023-05-07T02:40:46;100712.31;;;8.06;100.00
73860;BME280;62197;51.632;13.700;2023-05-07T02:43:11;100715.75;;;7.95;100.00
73860;BME280;62197;51.632;13.700;2023-05-07T02:45:37;100724.16;;;8.06;100.00
73860;BME280;62197;51.632;13.700;2023-05-07T02:48:02;100720.31;;;8.07;100.00
73860;BME280;62197;51.632;13.700;2023-05-07T02:50:28;100713.09;;;8.13;100.00
73860;BME280;62197;51.632;13.700;2023-05-07T02:52:53;100721.19;;;8.01;100.00
73860;BME280;62197;51.632;13.700;2023-05-07T02:55:19;100712.13;;;8.01;100.00
73860;BME280;62197;51.632;13.700;2023-05-07T02:57:44;100716.63;;;7.89;100.00
73860;BME280;62197;51.632;13.700;2023-05-07T03:00:13;100709.16;;;8.02;100.00
73860;BME280;62197;51.632;13.700;2023-05-07T03:02:39;100710.09;;;8.21;100.00
73860;BME280;62197;51.632;13.700;2023-05-07T03:05:05;100707.19;;;8.16;100.00
73860;BME280;62197;51.632;13.700;2023-05-07T03:07:30;100704.31;;;7.98;100.00
73860;BME280;62197;51.632;13.700;2023-05-07T03:09:55;100708.06;;;8.10;100.00
73860;BME280;62197;51.632;13.700;2023-05-07T03:12:21;100719.94;;;8.04;100.00
73860;BME280;62197;51.632;13.700;2023-05-07T03:14:46;100715.34;;;7.91;100.00
73860;BME280;62197;51.632;13.700;2023-05-07T03:17:11;100724.22;;;7.93;100.00
73860;BME280;62197;51.632;13.700;2023-05-07T03:19:37;100719.94;;;8.04;100.00
73860;BME280;62197;51.632;13.700;2023-05-07T03:22:02;100715.91;;;8.06;100.00
73860;BME280;62197;51.632;13.700;2023-05-07T03:24:27;100704.31;;;7.98;100.00
73860;BME280;62197;51.632;13.700;2023-05-07T03:26:53;100723.16;;;7.88;100.00
73860;BME280;62197;51.632;13.700;2023-05-07T03:29:18;100726.75;;;7.95;100.00
73860;BME280;62197;51.632;13.700;2023-05-07T03:31:43;100720.88;;;7.78;100.00
73860;BME280;62197;51.632;13.700;2023-05-07T03:34:09;100724.31;;;7.74;100.00
73860;BME280;62197;51.632;13.700;2023-05-07T03:36:34;100728.94;;;7.73;100.00
73860;BME280;62197;51.632;13.700;2023-05-07T03:38:59;100723.22;;;7.75;100.00
73860;BME280;62197;51.632;13.700;2023-05-07T03:41:25;100727.69;;;7.69;100.00
73860;BME280;62197;51.632;13.700;2023-05-07T03:43:51;100729.81;;;7.67;100.00
73860;BME280;62197;51.632;13.700;2023-05-07T03:46:16;100736.16;;;7.61;100.00
73860;BME280;62197;51.632;13.700;2023-05-07T03:48:41;100743.53;;;7.74;100.00
73860;BME280;62197;51.632;13.700;2023-05-07T03:51:07;100744.97;;;7.83;100.00
73860;BME280;62197;51.632;13.700;2023-05-07T03:53:32;100736.34;;;7.73;100.00
73860;BME280;62197;51.632;13.700;2023-05-07T03:55:57;100740.78;;;7.74;100.00
73860;BME280;62197;51.632;13.700;2023-05-07T03:58:23;100747.56;;;7.65;100.00
73860;BME280;62197;51.632;13.700;2023-05-07T04:00:48;100751.78;;;7.74;100.00
73860;BME280;62197;51.632;13.700;2023-05-07T04:03:14;100747.53;;;7.78;100.00
73860;BME280;62197;51.632;13.700;2023-05-07T04:05:39;100749.22;;;7.79;100.00
73860;BME280;62197;51.632;13.700;2023-05-07T04:08:04;100749.66;;;7.76;100.00
73860;BME280;62197;51.632;13.700;2023-05-07T04:10:30;100755.97;;;7.76;100.00
73860;BME280;62197;51.632;13.700;2023-05-07T04:12:56;100763.16;;;7.77;100.00
73860;BME280;62197;51.632;13.700;2023-05-07T04:15:22;100777.94;;;7.83;100.00
73860;BME280;62197;51.632;13.700;2023-05-07T04:17:48;100771.59;;;7.89;100.00
73860;BME280;62197;51.632;13.700;2023-05-07T04:20:16;100777.47;;;7.99;100.00
73860;BME280;62197;51.632;13.700;2023-05-07T04:22:42;100767.75;;;7.90;100.00
73860;BME280;62197;51.632;13.700;2023-05-07T04:25:08;100774.47;;;8.07;100.00
73860;BME280;62197;51.632;13.700;2023-05-07T04:27:34;100774.09;;;7.90;100.00
73860;BME280;62197;51.632;13.700;2023-05-07T04:30:00;100778.72;;;8.03;100.00
73860;BME280;62197;51.632;13.700;2023-05-07T04:32:26;100769.34;;;8.17;100.00
73860;BME280;62197;51.632;13.700;2023-05-07T04:34:51;100780.56;;;8.15;100.00
73860;BME280;62197;51.632;13.700;2023-05-07T04:37:16;100794.94;;;8.17;100.00
73860;BME280;62197;51.632;13.700;2023-05-07T04:39:42;100792.00;;;8.12;100.00
73860;BME280;62197;51.632;13.700;2023-05-07T04:42:07;100795.31;;;8.21;100.00
73860;BME280;62197;51.632;13.700;2023-05-07T04:44:34;100792.38;;;8.23;100.00
73860;BME280;62197;51.632;13.700;2023-05-07T04:47:00;100796.81;;;8.17;100.00
73860;BME280;62197;51.632;13.700;2023-05-07T04:49:25;100800.63;;;8.29;100.00
73860;BME280;62197;51.632;13.700;2023-05-07T04:51:50;100793.97;;;7.99;100.00
73860;BME280;62197;51.632;13.700;2023-05-07T04:54:16;100809.19;;;7.88;100.00
73860;BME280;62197;51.632;13.700;2023-05-07T04:56:41;100815.53;;;7.89;100.00
73860;BME280;62197;51.632;13.700;2023-05-07T04:59:06;100819.16;;;7.89;100.00
73860;BME280;62197;51.632;13.700;2023-05-07T05:01:32;100819.94;;;8.03;100.00
73860;BME280;62197;51.632;13.700;2023-05-07T05:03:57;100822.25;;;8.12;100.00
73860;BME280;62197;51.632;13.700;2023-05-07T05:06:23;100825.06;;;7.86;100.00
73860;BME280;62197;51.632;13.700;2023-05-07T05:08:48;100822.69;;;8.03;100.00
73860;BME280;62197;51.632;13.700;2023-05-07T05:11:13;100823.78;;;7.95;100.00
73860;BME280;62197;51.632;13.700;2023-05-07T05:13:40;100826.50;;;8.02;100.00
73860;BME280;62197;51.632;13.700;2023-05-07T05:16:05;100823.75;;;8.02;100.00
73860;BME280;62197;51.632;13.700;2023-05-07T05:18:31;100816.75;;;7.99;100.00
73860;BME280;62197;51.632;13.700;2023-05-07T05:20:56;100824.75;;;8.14;100.00
73860;BME280;62197;51.632;13.700;2023-05-07T05:23:21;100821.22;;;8.07;100.00
73860;BME280;62197;51.632;13.700;2023-05-07T05:25:47;100815.03;;;8.18;100.00
73860;BME280;62197;51.632;13.700;2023-05-07T05:28:12;100824.53;;;8.22;100.00
73860;BME280;62197;51.632;13.700;2023-05-07T05:30:38;100822.22;;;8.26;100.00
73860;BME280;62197;51.632;13.700;2023-05-07T05:33:04;100820.94;;;8.15;100.00
73860;BME280;62197;51.632;13.700;2023-05-07T05:35:29;100815.88;;;8.18;100.00
73860;BME280;62197;51.632;13.700;2023-05-07T05:37:54;100812.91;;;8.20;100.00
73860;BME280;62197;51.632;13.700;2023-05-07T05:40:20;100822.19;;;8.32;100.00
73860;BME280;62197;51.632;13.700;2023-05-07T05:42:45;100826.00;;;8.31;100.00
73860;BME280;62197;51.632;13.700;2023-05-07T05:45:11;100820.09;;;8.28;100.00
73860;BME280;62197;51.632;13.700;2023-05-07T05:47:37;100822.63;;;8.29;100.00
73860;BME280;62197;51.632;13.700;2023-05-07T05:50:03;100828.19;;;8.03;100.00
73860;BME280;62197;51.632;13.700;2023-05-07T05:52:28;100828.59;;;8.00;100.00
73860;BME280;62197;51.632;13.700;2023-05-07T05:54:54;100826.00;;;8.31;100.00
73860;BME280;62197;51.632;13.700;2023-05-07T05:57:19;100835.66;;;8.40;100.00
73860;BME280;62197;51.632;13.700;2023-05-07T05:59:44;100833.19;;;8.32;100.00
73860;BME280;62197;51.632;13.700;2023-05-07T06:02:11;100830.16;;;8.47;100.00
73860;BME280;62197;51.632;13.700;2023-05-07T06:04:37;100825.88;;;8.57;100.00
73860;BME280;62197;51.632;13.700;2023-05-07T06:07:02;100834.44;;;8.36;100.00
73860;BME280;62197;51.632;13.700;2023-05-07T06:09:27;100833.53;;;8.42;100.00
73860;BME280;62197;51.632;13.700;2023-05-07T06:11:53;100838.16;;;8.55;100.00
73860;BME280;62197;51.632;13.700;2023-05-07T06:14:18;100851.94;;;8.48;100.00
73860;BME280;62197;51.632;13.700;2023-05-07T06:16:43;100848.78;;;8.38;100.00
73860;BME280;62197;51.632;13.700;2023-05-07T06:19:09;100848.78;;;8.38;100.00
73860;BME280;62197;51.632;13.700;2023-05-07T06:21:34;100846.94;;;8.32;100.00
73860;BME280;62197;51.632;13.700;2023-05-07T06:23:59;100852.94;;;8.60;100.00
73860;BME280;62197;51.632;13.700;2023-05-07T06:26:25;100864.88;;;8.48;100.00
73860;BME280;62197;51.632;13.700;2023-05-07T06:28:50;100866.19;;;8.32;100.00
73860;BME280;62197;51.632;13.700;2023-05-07T06:31:19;100861.84;;;8.56;100.00
73860;BME280;62197;51.632;13.700;2023-05-07T06:33:48;100870.69;;;8.71;100.00
73860;BME280;62197;51.632;13.700;2023-05-07T06:36:14;100867.38;;;8.87;100.00
73860;BME280;62197;51.632;13.700;2023-05-07T06:38:39;100871.78;;;8.94;100.00
73860;BME280;62197;51.632;13.700;2023-05-07T06:41:06;100869.91;;;9.20;100.00
73860;BME280;62197;51.632;13.700;2023-05-07T06:43:31;100867.63;;;9.17;100.00
73860;BME280;62197;51.632;13.700;2023-05-07T06:45:57;100866.28;;;9.26;100.00
73860;BME280;62197;51.632;13.700;2023-05-07T06:48:22;100867.28;;;9.31;100.00
73860;BME280;62197;51.632;13.700;2023-05-07T06:50:47;100864.09;;;9.09;100.00
73860;BME280;62197;51.632;13.700;2023-05-07T06:53:12;100871.72;;;9.07;100.00
73860;BME280;62197;51.632;13.700;2023-05-07T06:55:38;100875.34;;;9.01;100.00
73860;BME280;62197;51.632;13.700;2023-05-07T06:58:03;100875.72;;;8.74;100.00
73860;BME280;62197;51.632;13.700;2023-05-07T07:00:28;100876.13;;;8.77;100.00
73860;BME280;62197;51.632;13.700;2023-05-07T07:02:54;100869.72;;;8.90;100.00
73860;BME280;62197;51.632;13.700;2023-05-07T07:05:20;100877.81;;;8.78;100.00
73860;BME280;62197;51.632;13.700;2023-05-07T07:07:45;100871.53;;;9.02;100.00
73860;BME280;62197;51.632;13.700;2023-05-07T07:10:20;100881.28;;;9.30;100.00
73860;BME280;62197;51.632;13.700;2023-05-07T07:12:45;100888.47;;;9.62;100.00
73860;BME280;62197;51.632;13.700;2023-05-07T07:15:10;100885.72;;;9.62;100.00
73860;BME280;62197;51.632;13.700;2023-05-07T07:17:36;100888.03;;;9.58;100.00
73860;BME280;62197;51.632;13.700;2023-05-07T07:20:01;100891.00;;;10.06;100.00
73860;BME280;62197;51.632;13.700;2023-05-07T07:22:27;100881.69;;;10.25;100.00
73860;BME280;62197;51.632;13.700;2023-05-07T07:24:53;100896.25;;;10.14;100.00
73860;BME280;62197;51.632;13.700;2023-05-07T07:27:18;100897.09;;;9.90;100.00
73860;BME280;62197;51.632;13.700;2023-05-07T07:29:43;100900.69;;;10.15;100.00
73860;BME280;62197;51.632;13.700;2023-05-07T07:32:08;100888.44;;;10.29;100.00
73860;BME280;62197;51.632;13.700;2023-05-07T07:34:34;100904.00;;;10.60;100.00
73860;BME280;62197;51.632;13.700;2023-05-07T07:37:00;100901.47;;;10.40;100.00
73860;BME280;62197;51.632;13.700;2023-05-07T07:39:30;100901.59;;;10.45;100.00
73860;BME280;62197;51.632;13.700;2023-05-07T07:41:55;100911.09;;;10.49;100.00
73860;BME280;62197;51.632;13.700;2023-05-07T07:44:21;100913.19;;;10.54;100.00
73860;BME280;62197;51.632;13.700;2023-05-07T07:46:46;100917.25;;;10.33;100.00
73860;BME280;62197;51.632;13.700;2023-05-07T07:49:11;100914.00;;;10.18;100.00
73860;BME280;62197;51.632;13.700;2023-05-07T07:51:36;100916.75;;;10.18;100.00
73860;BME280;62197;51.632;13.700;2023-05-07T07:54:02;100918.94;;;10.34;100.00
73860;BME280;62197;51.632;13.700;2023-05-07T07:56:27;100914.47;;;10.87;100.00
73860;BME280;62197;51.632;13.700;2023-05-07T07:58:53;100922.19;;;11.27;100.00
73860;BME280;62197;51.632;13.700;2023-05-07T08:01:18;100922.06;;;11.22;98.64
73860;BME280;62197;51.632;13.700;2023-05-07T08:03:43;100929.16;;;11.00;98.73
73860;BME280;62197;51.632;13.700;2023-05-07T08:06:08;100926.63;;;10.50;100.00
73860;BME280;62197;51.632;13.700;2023-05-07T08:08:34;100921.25;;;10.37;100.00
73860;BME280;62197;51.632;13.700;2023-05-07T08:10:59;100915.84;;;10.24;100.00
73860;BME280;62197;51.632;13.700;2023-05-07T08:13:24;100927.22;;;10.16;100.00
73860;BME280;62197;51.632;13.700;2023-05-07T08:15:49;100918.78;;;10.04;100.00
73860;BME280;62197;51.632;13.700;2023-05-07T08:18:15;100922.38;;;9.87;100.00
73860;BME280;62197;51.632;13.700;2023-05-07T08:20:40;100916.38;;;9.90;100.00
73860;BME280;62197;51.632;13.700;2023-05-07T08:23:06;100913.47;;;9.85;100.00
73860;BME280;62197;51.632;13.700;2023-05-07T08:25:33;100912.69;;;10.02;100.00
73860;BME280;62197;51.632;13.700;2023-05-07T08:27:59;100912.41;;;10.29;100.00
73860;BME280;62197;51.632;13.700;2023-05-07T08:30:24;100925.09;;;10.54;100.00
73860;BME280;62197;51.632;13.700;2023-05-07T08:32:49;100907.44;;;10.73;100.00
73860;BME280;62197;51.632;13.700;2023-05-07T08:35:15;100926.91;;;10.42;100.00
73860;BME280;62197;51.632;13.700;2023-05-07T08:37:40;100924.84;;;10.20;100.00
73860;BME280;62197;51.632;13.700;2023-05-07T08:40:05;100933.19;;;10.07;100.00
73860;BME280;62197;51.632;13.700;2023-05-07T08:42:31;100923.63;;;10.09;100.00
73860;BME280;62197;51.632;13.700;2023-05-07T08:45:00;100938.69;;;10.07;100.00
73860;BME280;62197;51.632;13.700;2023-05-07T08:47:34;100941.59;;;10.18;100.00
73860;BME280;62197;51.632;13.700;2023-05-07T08:50:02;100930.91;;;10.46;100.00
73860;BME280;62197;51.632;13.700;2023-05-07T08:52:27;100943.66;;;10.23;100.00
73860;BME280;62197;51.632;13.700;2023-05-07T08:54:52;100943.94;;;10.39;100.00
73860;BME280;62197;51.632;13.700;2023-05-07T08:57:17;100951.06;;;10.65;100.00
73860;BME280;62197;51.632;13.700;2023-05-07T08:59:45;100950.91;;;10.42;100.00
73860;BME280;62197;51.632;13.700;2023-05-07T09:02:10;100943.75;;;10.34;100.00
73860;BME280;62197;51.632;13.700;2023-05-07T09:04:36;100944.25;;;10.67;100.00
73860;BME280;62197;51.632;13.700;2023-05-07T09:07:01;100953.28;;;10.38;100.00
73860;BME280;62197;51.632;13.700;2023-05-07T09:09:32;100956.94;;;10.86;100.00
73860;BME280;62197;51.632;13.700;2023-05-07T09:11:57;100958.97;;;10.79;100.00
73860;BME280;62197;51.632;13.700;2023-05-07T09:14:27;100956.13;;;10.50;100.00
73860;BME280;62197;51.632;13.700;2023-05-07T09:16:53;100957.66;;;10.64;100.00
73860;BME280;62197;51.632;13.700;2023-05-07T09:19:25;100961.06;;;10.96;100.00
73860;BME280;62197;51.632;13.700;2023-05-07T09:21:58;100964.56;;;11.21;100.00
73860;BME280;62197;51.632;13.700;2023-05-07T09:24:24;100963.19;;;11.30;100.00
73860;BME280;62197;51.632;13.700;2023-05-07T09:26:50;100968.88;;;11.17;100.00
73860;BME280;62197;51.632;13.700;2023-05-07T09:29:15;100972.06;;;11.32;98.65
73860;BME280;62197;51.632;13.700;2023-05-07T09:31:40;100954.97;;;11.23;98.29
73860;BME280;62197;51.632;13.700;2023-05-07T09:34:06;100959.47;;;11.36;100.00
73860;BME280;62197;51.632;13.700;2023-05-07T09:36:31;100967.06;;;10.93;100.00
73860;BME280;62197;51.632;13.700;2023-05-07T09:38:59;100955.28;;;11.15;98.87
73860;BME280;62197;51.632;13.700;2023-05-07T09:41:25;100958.25;;;11.32;99.24
73860;BME280;62197;51.632;13.700;2023-05-07T09:43:54;100952.88;;;11.66;99.12
73860;BME280;62197;51.632;13.700;2023-05-07T09:46:30;100959.66;;;11.94;95.34
73860;BME280;62197;51.632;13.700;2023-05-07T09:48:57;100961.78;;;11.80;95.58
73860;BME280;62197;51.632;13.700;2023-05-07T09:51:39;100962.00;;;11.67;93.28
73860;BME280;62197;51.632;13.700;2023-05-07T09:54:06;100970.38;;;11.31;95.79
73860;BME280;62197;51.632;13.700;2023-05-07T09:56:32;100972.25;;;11.48;97.64
73860;BME280;62197;51.632;13.700;2023-05-07T09:58:59;100972.59;;;11.52;94.19
73860;BME280;62197;51.632;13.700;2023-05-07T10:01:25;100966.34;;;11.45;96.63
73860;BME280;62197;51.632;13.700;2023-05-07T10:03:52;100966.56;;;11.14;98.00
73860;BME280;62197;51.632;13.700;2023-05-07T10:06:20;100970.69;;;11.23;97.20
73860;BME280;62197;51.632;13.700;2023-05-07T10:08:45;100973.91;;;11.38;97.16
73860;BME280;62197;51.632;13.700;2023-05-07T10:11:11;100966.91;;;11.35;95.81
73860;BME280;62197;51.632;13.700;2023-05-07T10:13:36;100970.38;;;11.31;94.48
73860;BME280;62197;51.632;13.700;2023-05-07T10:16:05;100971.13;;;11.38;95.94
73860;BME280;62197;51.632;13.700;2023-05-07T10:18:31;100964.44;;;11.45;93.15
73860;BME280;62197;51.632;13.700;2023-05-07T10:21:11;100974.94;;;11.96;91.51
73860;BME280;62197;51.632;13.700;2023-05-07T10:23:37;100978.69;;;12.36;91.09
73860;BME280;62197;51.632;13.700;2023-05-07T10:26:05;100975.66;;;12.49;90.14
73860;BME280;62197;51.632;13.700;2023-05-07T10:28:34;100972.91;;;12.26;89.58
73860;BME280;62197;51.632;13.700;2023-05-07T10:33:46;100976.34;;;11.87;91.12
73860;BME280;62197;51.632;13.700;2023-05-07T10:36:13;100972.03;;;12.14;91.76
73860;BME280;62197;51.632;13.700;2023-05-07T10:38:39;100963.94;;;11.78;91.26
73860;BME280;62197;51.632;13.700;2023-05-07T10:41:05;100958.06;;;11.45;93.77
73860;BME280;62197;51.632;13.700;2023-05-07T10:43:40;100982.56;;;11.71;95.12
73860;BME280;62197;51.632;13.700;2023-05-07T10:46:18;100967.53;;;11.67;96.15
73860;BME280;62197;51.632;13.700;2023-05-07T10:51:34;100961.72;;;12.44;92.03
73860;BME280;62197;51.632;13.700;2023-05-07T10:56:35;100971.94;;;12.55;89.46
73860;BME280;62197;51.632;13.700;2023-05-07T11:01:59;100964.69;;;12.08;88.42
73860;BME280;62197;51.632;13.700;2023-05-07T11:04:27;100971.94;;;12.21;89.76
73860;BME280;62197;51.632;13.700;2023-05-07T11:15:10;100964.94;;;14.05;83.39
73860;BME280;62197;51.632;13.700;2023-05-07T11:17:56;100955.88;;;14.43;81.31
73860;BME280;62197;51.632;13.700;2023-05-07T11:20:48;100964.94;;;14.55;81.58
73860;BME280;62197;51.632;13.700;2023-05-07T11:26:08;100972.22;;;13.62;80.35
73860;BME280;62197;51.632;13.700;2023-05-07T11:28:42;100963.31;;;12.92;82.81
73860;BME280;62197;51.632;13.700;2023-05-07T11:31:08;100971.91;;;12.67;86.88
73860;BME280;62197;51.632;13.700;2023-05-07T11:33:34;100967.22;;;12.67;86.98
73860;BME280;62197;51.632;13.700;2023-05-07T11:36:00;100966.75;;;12.47;89.17
73860;BME280;62197;51.632;13.700;2023-05-07T11:38:25;100969.41;;;12.42;88.28
73860;BME280;62197;51.632;13.700;2023-05-07T11:40:52;100978.06;;;12.57;87.80
73860;BME280;62197;51.632;13.700;2023-05-07T11:43:18;100965.44;;;12.38;88.19
73860;BME280;62197;51.632;13.700;2023-05-07T11:45:47;100974.47;;;12.45;88.05
73860;BME280;62197;51.632;13.700;2023-05-07T11:48:14;100979.13;;;12.56;88.21
73860;BME280;62197;51.632;13.700;2023-05-07T11:53:27;100969.75;;;12.57;88.58
73860;BME280;62197;51.632;13.700;2023-05-07T11:55:55;100976.06;;;13.16;87.82
73860;BME280;62197;51.632;13.700;2023-05-07T11:58:21;100984.81;;;13.24;83.75
73860;BME280;62197;51.632;13.700;2023-05-07T12:00:53;100977.72;;;13.17;83.91
73860;BME280;62197;51.632;13.700;2023-05-07T12:03:19;100986.34;;;13.32;82.22
73860;BME280;62197;51.632;13.700;2023-05-07T12:05:46;100983.63;;;12.97;85.68
73860;BME280;62197;51.632;13.700;2023-05-07T12:08:15;100982.72;;;12.80;83.63
73860;BME280;62197;51.632;13.700;2023-05-07T12:10:44;100991.41;;;12.49;84.28
73860;BME280;62197;51.632;13.700;2023-05-07T12:13:22;100990.81;;;12.35;86.07
73860;BME280;62197;51.632;13.700;2023-05-07T12:15:54;101000.22;;;12.34;87.08
73860;BME280;62197;51.632;13.700;2023-05-07T12:18:21;100999.03;;;12.42;85.45
73860;BME280;62197;51.632;13.700;2023-05-07T12:20:47;100994.09;;;12.32;85.26
73860;BME280;62197;51.632;13.700;2023-05-07T12:23:13;101003.69;;;12.76;85.41
73860;BME280;62197;51.632;13.700;2023-05-07T12:25:40;100997.63;;;13.14;86.04
73860;BME280;62197;51.632;13.700;2023-05-07T12:28:13;100994.56;;;13.27;82.54
73860;BME280;62197;51.632;13.700;2023-05-07T12:30:38;100997.13;;;13.17;83.93
73860;BME280;62197;51.632;13.700;2023-05-07T12:33:04;101004.97;;;13.20;83.67
73860;BME280;62197;51.632;13.700;2023-05-07T12:35:36;101016.22;;;12.79;84.82
73860;BME280;62197;51.632;13.700;2023-05-07T12:38:02;101004.66;;;12.24;85.60
73860;BME280;62197;51.632;13.700;2023-05-07T12:40:43;101005.22;;;12.84;83.10
73860;BME280;62197;51.632;13.700;2023-05-07T12:43:17;101009.38;;;12.69;86.21
73860;BME280;62197;51.632;13.700;2023-05-07T12:45:43;101012.50;;;12.61;84.57
73860;BME280;62197;51.632;13.700;2023-05-07T12:48:12;101005.25;;;12.49;84.94
73860;BME280;62197;51.632;13.700;2023-05-07T12:50:37;101004.75;;;12.87;84.33
73860;BME280;62197;51.632;13.700;2023-05-07T12:53:04;101007.94;;;13.18;83.41
73860;BME280;62197;51.632;13.700;2023-05-07T12:55:31;101006.94;;;12.85;85.05
73860;BME280;62197;51.632;13.700;2023-05-07T12:57:57;101002.97;;;12.69;85.16
73860;BME280;62197;51.632;13.700;2023-05-07T13:00:38;101016.94;;;12.51;85.31